createdAt,value
2018-06-22T00:00:01.657Z,1.90
2018-06-22T00:02:30.182Z,1.83
2018-06-22T00:04:59.116Z,1.60
2018-06-22T00:07:28.795Z,1.87
2018-06-22T00:09:57.314Z,1.70
2018-06-22T00:12:26.205Z,1.50
2018-06-22T00:14:54.924Z,1.73
2018-06-22T00:17:23.493Z,1.50
2018-06-22T00:19:52.283Z,1.40
2018-06-22T00:22:21.054Z,1.40
2018-06-22T00:24:49.986Z,1.60
2018-06-22T00:27:18.540Z,1.70
2018-06-22T00:29:47.325Z,2.07
2018-06-22T00:32:15.988Z,2.10
2018-06-22T00:34:44.751Z,1.57
2018-06-22T00:37:13.292Z,1.67
2018-06-22T00:39:42.037Z,1.80
2018-06-22T00:42:10.562Z,1.47
2018-06-22T00:44:39.076Z,1.70
2018-06-22T00:47:07.738Z,2.07
2018-06-22T00:49:36.306Z,1.57
2018-06-22T00:52:04.863Z,1.97
2018-06-22T00:54:33.465Z,1.77
2018-06-22T00:57:02.049Z,1.60
2018-06-22T00:59:30.892Z,1.47
2018-06-22T01:01:59.611Z,1.30
2018-06-22T01:04:28.281Z,1.83
2018-06-22T01:06:56.852Z,1.67
2018-06-22T01:09:25.487Z,1.63
2018-06-22T01:11:54.020Z,1.40
2018-06-22T01:14:22.611Z,1.90
2018-06-22T01:16:51.135Z,1.23
2018-06-22T01:19:20.021Z,1.60
2018-06-22T01:21:48.590Z,1.90
2018-06-22T01:24:17.484Z,1.80
2018-06-22T01:26:46.392Z,1.73
2018-06-22T01:29:20.098Z,1.80
2018-06-22T01:31:48.627Z,1.40
2018-06-22T01:34:17.174Z,1.93
2018-06-22T01:36:45.690Z,1.37
2018-06-22T01:39:14.264Z,1.60
2018-06-22T01:41:43.098Z,2.13
2018-06-22T01:44:11.783Z,1.80
2018-06-22T01:46:40.627Z,2.10
2018-06-22T01:49:09.472Z,1.57
2018-06-22T01:51:38.230Z,1.50
2018-06-22T01:54:06.845Z,1.53
2018-06-22T01:56:35.359Z,2.27
2018-06-22T01:59:03.884Z,1.47
2018-06-22T02:01:32.614Z,1.60
2018-06-22T02:04:01.156Z,1.97
2018-06-22T02:06:29.821Z,1.67
2018-06-22T02:08:58.483Z,1.90
2018-06-22T02:11:27.280Z,1.90
2018-06-22T02:13:55.791Z,1.77
2018-06-22T02:16:24.370Z,1.50
2018-06-22T02:18:52.892Z,1.67
2018-06-22T02:21:21.412Z,1.80
2018-06-22T02:23:49.959Z,1.40
2018-06-22T02:26:19.376Z,1.63
2018-06-22T02:28:47.945Z,1.50
2018-06-22T02:31:16.508Z,1.37
2018-06-22T02:33:45.019Z,1.70
2018-06-22T02:36:13.600Z,1.53
2018-06-22T02:38:42.110Z,1.30
2018-06-22T02:41:11.155Z,1.70
2018-06-22T02:43:39.774Z,1.97
2018-06-22T02:46:08.472Z,2.33
2018-06-22T02:48:37.124Z,1.80
2018-06-22T02:51:05.689Z,1.80
2018-06-22T02:53:34.343Z,1.43
2018-06-22T02:56:02.813Z,1.50
2018-06-22T02:58:31.378Z,1.37
2018-06-22T03:01:00.005Z,1.33
2018-06-22T03:03:28.550Z,1.53
2018-06-22T03:05:57.056Z,1.67
2018-06-22T03:08:25.627Z,2.00
2018-06-22T03:10:54.472Z,1.73
2018-06-22T03:13:23.007Z,1.93
2018-06-22T03:15:51.780Z,1.70
2018-06-22T03:18:20.572Z,2.10
2018-06-22T03:20:49.072Z,1.60
2018-06-22T03:23:17.717Z,1.93
2018-06-22T03:25:46.316Z,2.07
2018-06-22T03:28:15.164Z,1.70
2018-06-22T03:30:43.668Z,2.10
2018-06-22T03:33:12.259Z,2.00
2018-06-22T03:35:40.913Z,1.30
2018-06-22T03:38:09.740Z,1.80
2018-06-22T03:40:38.357Z,1.60
2018-06-22T03:43:07.489Z,1.50
2018-06-22T03:45:36.226Z,1.67
2018-06-22T03:48:05.803Z,1.83
2018-06-22T03:50:34.327Z,2.00
2018-06-22T03:53:03.444Z,1.97
2018-06-22T03:55:32.149Z,1.90
2018-06-22T03:58:00.884Z,1.97
2018-06-22T04:00:29.777Z,2.20
2018-06-22T04:02:58.276Z,1.70
2018-06-22T04:05:27.456Z,1.73
2018-06-22T04:07:55.939Z,1.90
2018-06-22T04:10:24.435Z,1.77
2018-06-22T04:12:52.982Z,1.57
2018-06-22T04:15:21.951Z,1.87
2018-06-22T04:17:52.802Z,2.03
2018-06-22T04:20:22.620Z,1.83
2018-06-22T04:22:52.305Z,1.73
2018-06-22T04:25:22.031Z,2.50
2018-06-22T04:27:51.518Z,1.90
2018-06-22T04:30:20.536Z,2.00
2018-06-22T04:32:50.395Z,1.87
2018-06-22T04:35:18.658Z,2.20
2018-06-22T04:37:47.363Z,1.90
2018-06-22T04:40:15.933Z,1.97
2018-06-22T04:42:44.597Z,2.00
2018-06-22T04:45:13.325Z,2.07
2018-06-22T04:47:41.945Z,2.20
2018-06-22T04:50:10.701Z,1.80
2018-06-22T04:52:39.595Z,1.70
2018-06-22T04:55:08.318Z,1.93
2018-06-22T04:57:36.865Z,1.90
2018-06-22T05:00:06.055Z,2.07
2018-06-22T05:02:34.576Z,2.17
2018-06-22T05:05:03.123Z,2.90
2018-06-22T05:07:31.956Z,2.30
2018-06-22T05:10:00.578Z,1.80
2018-06-22T05:12:29.421Z,1.97
2018-06-22T05:14:58.107Z,1.73
2018-06-22T05:17:27.022Z,2.60
2018-06-22T05:19:55.629Z,2.10
2018-06-22T05:22:24.475Z,1.80
2018-06-22T05:24:53.202Z,2.00
2018-06-22T05:27:21.760Z,1.77
2018-06-22T05:29:50.504Z,2.03
2018-06-22T05:32:19.168Z,2.40
2018-06-22T05:34:47.854Z,2.33
2018-06-22T05:37:16.401Z,2.30
2018-06-22T05:39:45.411Z,2.43
2018-06-22T05:42:14.008Z,2.13
2018-06-22T05:44:43.540Z,2.47
2018-06-22T05:47:12.140Z,2.17
2018-06-22T05:49:41.564Z,2.73
2018-06-22T05:52:10.567Z,2.97
2018-06-22T05:54:39.171Z,2.60
2018-06-22T05:57:07.752Z,2.67
2018-06-22T05:59:36.515Z,2.70
2018-06-22T06:02:05.489Z,3.13
2018-06-22T06:04:34.023Z,2.93
2018-06-22T06:07:02.644Z,2.70
2018-06-22T06:09:32.114Z,2.93
2018-06-22T06:12:00.935Z,2.13
2018-06-22T06:14:29.978Z,2.80
2018-06-22T06:16:58.722Z,2.73
2018-06-22T06:19:27.800Z,3.80
2018-06-22T06:21:56.675Z,3.57
2018-06-22T06:24:28.072Z,3.90
2018-06-22T06:26:58.003Z,4.27
2018-06-22T06:29:27.163Z,3.60
2018-06-22T06:31:56.007Z,3.00
2018-06-22T06:34:25.941Z,2.80
2018-06-22T06:36:55.236Z,3.07
2018-06-22T06:39:24.215Z,2.93
2018-06-22T06:41:54.388Z,2.70
2018-06-22T06:44:23.752Z,2.77
2018-06-22T06:46:52.916Z,2.63
2018-06-22T06:49:21.627Z,2.93
2018-06-22T06:51:51.390Z,1.80
2018-06-22T06:54:20.494Z,2.27
2018-06-22T06:56:50.510Z,1.50
2018-06-22T06:59:20.061Z,2.37
2018-06-22T07:01:48.654Z,2.10
2018-06-22T07:04:18.721Z,2.07
2018-06-22T07:06:47.462Z,1.83
2018-06-22T07:09:17.504Z,1.93
2018-06-22T07:11:46.577Z,1.70
2018-06-22T07:14:14.769Z,1.70
2018-06-22T07:16:43.750Z,1.90
2018-06-22T07:19:12.313Z,1.93
2018-06-22T07:21:40.932Z,1.83
2018-06-22T07:24:11.009Z,1.90
2018-06-22T07:26:40.989Z,1.70
2018-06-22T07:29:10.735Z,2.10
2018-06-22T07:31:39.751Z,1.70
2018-06-22T07:34:13.032Z,1.60
2018-06-22T07:36:45.466Z,1.70
2018-06-22T07:39:16.944Z,1.83
2018-06-22T07:41:49.791Z,1.97
2018-06-22T07:44:20.127Z,1.70
2018-06-22T07:46:48.758Z,1.47
2018-06-22T07:49:18.613Z,1.33
2018-06-22T07:51:47.646Z,1.27
2018-06-22T07:54:16.332Z,1.50
2018-06-22T07:56:45.402Z,1.33
2018-06-22T07:59:14.394Z,1.53
2018-06-22T08:01:43.576Z,1.30
2018-06-22T08:04:13.417Z,1.70
2018-06-22T08:06:42.953Z,1.40
2018-06-22T08:09:11.659Z,1.67
2018-06-22T08:11:40.703Z,1.90
2018-06-22T08:14:10.029Z,1.67
2018-06-22T08:16:39.098Z,1.33
2018-06-22T08:19:09.022Z,1.70
2018-06-22T08:21:38.677Z,1.47
2018-06-22T08:24:10.483Z,2.23
2018-06-22T08:26:40.764Z,1.70
2018-06-22T08:29:13.272Z,1.87
2018-06-22T08:31:50.064Z,1.80
2018-06-22T08:34:24.956Z,1.80
2018-06-22T08:36:53.783Z,1.63
2018-06-22T08:39:28.121Z,1.83
2018-06-22T08:41:59.435Z,1.40
2018-06-22T08:44:31.942Z,1.50
2018-06-22T08:47:02.373Z,1.43
2018-06-22T08:49:36.347Z,1.53
2018-06-22T08:52:09.288Z,1.80
2018-06-22T08:54:40.386Z,1.73
2018-06-22T08:57:11.842Z,2.07
2018-06-22T08:59:41.478Z,2.03
2018-06-22T09:02:10.600Z,2.10
2018-06-22T09:04:41.175Z,1.47
2018-06-22T09:07:14.980Z,1.60
2018-06-22T09:09:49.606Z,1.40
2018-06-22T09:12:22.033Z,1.73
2018-06-22T09:14:51.862Z,1.77
2018-06-22T09:17:24.914Z,1.40
2018-06-22T09:19:58.423Z,2.10
2018-06-22T09:22:31.392Z,1.73
2018-06-22T09:25:07.269Z,1.57
2018-06-22T09:27:39.451Z,1.30
2018-06-22T09:30:14.263Z,1.30
2018-06-22T09:32:48.257Z,1.40
2018-06-22T09:35:19.953Z,1.13
2018-06-22T09:37:49.611Z,1.20
2018-06-22T09:40:18.930Z,1.33
2018-06-22T09:42:56.767Z,1.20
2018-06-22T09:45:31.489Z,1.93
2018-06-22T09:48:01.865Z,1.20
2018-06-22T09:50:33.328Z,1.70
2018-06-22T09:53:07.478Z,1.73
2018-06-22T09:55:37.483Z,1.53
2018-06-22T09:58:11.191Z,1.20
2018-06-22T10:00:46.229Z,1.50
2018-06-22T10:03:17.163Z,1.30
2018-06-22T10:05:46.854Z,1.10
2018-06-22T10:08:15.927Z,1.40
2018-06-22T10:10:44.706Z,1.70
2018-06-22T10:13:14.111Z,1.40
2018-06-22T10:15:52.051Z,1.37
2018-06-22T10:18:22.919Z,1.90
2018-06-22T10:20:51.834Z,2.10
2018-06-22T10:23:20.383Z,1.63
2018-06-22T10:25:50.780Z,1.27
2018-06-22T10:28:19.967Z,1.53
2018-06-22T10:30:48.873Z,1.30
2018-06-22T10:33:17.845Z,1.43
2018-06-22T10:35:46.646Z,1.10
2018-06-22T10:38:15.325Z,1.70
2018-06-22T10:40:44.110Z,1.70
2018-06-22T10:43:13.259Z,1.90
2018-06-22T10:45:42.156Z,1.50
2018-06-22T10:48:10.812Z,1.77
2018-06-22T10:50:39.583Z,1.60
2018-06-22T10:53:09.736Z,1.53
2018-06-22T10:55:39.592Z,2.20
2018-06-22T10:58:08.281Z,1.70
2018-06-22T11:00:36.880Z,1.70
2018-06-22T11:03:06.051Z,2.43
2018-06-22T11:05:35.289Z,1.70
2018-06-22T11:08:04.103Z,1.83
2018-06-22T11:10:33.349Z,1.70
2018-06-22T11:13:01.948Z,1.70
2018-06-22T11:15:30.709Z,2.23
2018-06-22T11:17:59.293Z,1.73
2018-06-22T11:20:28.080Z,1.90
2018-06-22T11:22:57.074Z,1.47
2018-06-22T11:25:26.307Z,1.57
2018-06-22T11:27:54.910Z,1.50
2018-06-22T11:30:24.150Z,1.40
2018-06-22T11:32:53.068Z,1.33
2018-06-22T11:35:21.670Z,1.50
2018-06-22T11:37:50.219Z,1.70
2018-06-22T11:40:19.039Z,1.70
2018-06-22T11:42:47.609Z,1.57
2018-06-22T11:45:16.330Z,1.90
2018-06-22T11:47:44.932Z,1.70
2018-06-22T11:50:13.939Z,2.20
2018-06-22T11:52:42.849Z,1.60
2018-06-22T11:55:12.473Z,1.70
2018-06-22T11:57:41.346Z,1.80
2018-06-22T12:00:09.999Z,1.60
2018-06-22T12:02:38.867Z,1.93
2018-06-22T12:05:07.533Z,2.00
2018-06-22T12:07:36.198Z,1.67
2018-06-22T12:10:04.935Z,1.90
2018-06-22T12:12:33.771Z,1.90
2018-06-22T12:15:02.561Z,1.50
2018-06-22T12:17:31.308Z,1.43
2018-06-22T12:19:59.932Z,1.80
2018-06-22T12:22:28.617Z,1.50
2018-06-22T12:24:57.482Z,1.40
2018-06-22T12:27:26.906Z,2.20
2018-06-22T12:29:55.795Z,2.00
2018-06-22T12:32:24.398Z,1.77
2018-06-22T12:34:53.291Z,2.00
2018-06-22T12:37:22.064Z,1.70
2018-06-22T12:39:51.262Z,1.67
2018-06-22T12:42:20.956Z,1.80
2018-06-22T12:44:49.588Z,2.00
2018-06-22T12:47:18.231Z,1.80
2018-06-22T12:49:46.926Z,1.77
2018-06-22T12:52:15.471Z,1.60
2018-06-22T12:54:44.656Z,2.10
2018-06-22T12:57:13.246Z,1.87
2018-06-22T12:59:41.981Z,1.77
2018-06-22T13:02:10.843Z,1.67
2018-06-22T13:04:39.852Z,1.90
2018-06-22T13:07:08.564Z,1.63
2018-06-22T13:09:37.130Z,1.50
2018-06-22T13:12:05.839Z,2.50
2018-06-22T13:14:34.514Z,1.87
2018-06-22T13:17:03.242Z,1.40
2018-06-22T13:19:32.997Z,1.93
2018-06-22T13:22:02.355Z,1.70
2018-06-22T13:24:30.943Z,1.67
2018-06-22T13:27:00.027Z,1.70
2018-06-22T13:29:28.589Z,2.17
2018-06-22T13:31:57.259Z,2.40
2018-06-22T13:34:25.781Z,1.90
2018-06-22T13:36:54.510Z,1.53
2018-06-22T13:39:23.303Z,1.70
2018-06-22T13:41:51.924Z,1.73
2018-06-22T13:44:21.476Z,1.50
2018-06-22T13:46:51.502Z,1.80
2018-06-22T13:49:21.383Z,1.93
2018-06-22T13:51:50.076Z,1.43
2018-06-22T13:54:18.812Z,1.60
2018-06-22T13:56:47.469Z,2.20
2018-06-22T13:59:16.131Z,1.73
2018-06-22T14:01:45.614Z,2.27
2018-06-22T14:04:19.589Z,2.17
2018-06-22T14:06:52.668Z,1.87
2018-06-22T14:09:21.731Z,2.17
2018-06-22T14:11:50.500Z,1.90
2018-06-22T14:14:19.323Z,1.43
2018-06-22T14:16:48.102Z,1.80
2018-06-22T14:19:16.367Z,1.47
2018-06-22T14:21:45.227Z,2.17
2018-06-22T14:24:13.963Z,1.87
2018-06-22T14:26:42.637Z,1.63
2018-06-22T14:29:11.604Z,1.80
2018-06-22T14:31:40.179Z,1.57
2018-06-22T14:34:08.973Z,2.27
2018-06-22T14:36:37.610Z,1.20
2018-06-22T14:39:08.183Z,1.43
2018-06-22T14:41:37.725Z,2.03
2018-06-22T14:44:06.600Z,1.43
2018-06-22T14:46:35.655Z,1.20
2018-06-22T14:49:04.329Z,1.43
2018-06-22T14:51:33.194Z,1.60
2018-06-22T14:56:08.566Z,1.43
2018-06-22T14:58:42.316Z,1.67
2018-06-22T15:01:16.208Z,1.37
2018-06-22T15:03:50.065Z,1.10
2018-06-22T15:06:24.342Z,1.30
2018-06-22T15:08:53.140Z,1.33
2018-06-22T15:11:21.944Z,1.33
2018-06-22T15:13:52.042Z,1.27
2018-06-22T15:16:20.975Z,1.50
2018-06-22T15:18:49.879Z,1.20
2018-06-22T15:21:18.948Z,1.73
2018-06-22T15:23:47.616Z,1.30
2018-06-22T15:26:16.504Z,1.40
2018-06-22T15:28:46.440Z,1.33
2018-06-22T15:31:15.309Z,1.33
2018-06-22T15:33:48.998Z,1.70
2018-06-22T15:36:22.720Z,1.60
2018-06-22T15:38:56.919Z,1.30
2018-06-22T15:41:30.949Z,1.40
2018-06-22T15:44:05.226Z,2.13
2018-06-22T15:46:39.789Z,1.20
2018-06-22T15:49:14.132Z,1.43
2018-06-22T15:51:48.119Z,1.50
2018-06-22T15:54:22.648Z,1.37
2018-06-22T15:56:51.431Z,1.83
2018-06-22T15:59:20.509Z,1.97
2018-06-22T16:01:49.166Z,1.70
2018-06-22T16:04:18.657Z,1.27
2018-06-22T16:06:47.523Z,1.70
2018-06-22T16:09:16.208Z,1.60
2018-06-22T16:11:44.818Z,1.60
2018-06-22T16:14:18.672Z,1.53
2018-06-22T16:16:52.506Z,1.80
2018-06-22T16:19:26.383Z,1.47
2018-06-22T16:22:00.313Z,1.60
2018-06-22T16:24:34.282Z,1.40
2018-06-22T16:27:09.209Z,1.60
2018-06-22T16:29:37.990Z,1.37
2018-06-22T16:32:06.566Z,1.40
2018-06-22T16:34:35.172Z,1.00
2018-06-22T16:37:04.367Z,1.20
2018-06-22T16:39:33.202Z,1.10
2018-06-22T16:42:02.471Z,1.53
2018-06-22T16:44:31.027Z,1.30
2018-06-22T16:46:59.791Z,1.30
2018-06-22T16:49:28.321Z,1.70
2018-06-22T16:51:57.319Z,1.50
2018-06-22T16:54:25.874Z,1.67
2018-06-22T16:56:54.555Z,1.27
2018-06-22T16:59:23.319Z,1.40
2018-06-22T17:01:51.961Z,1.50
2018-06-22T17:04:20.903Z,1.50
2018-06-22T17:06:54.761Z,1.50
2018-06-22T17:09:28.651Z,1.30
2018-06-22T17:12:02.509Z,1.30
2018-06-22T17:14:36.473Z,1.30
2018-06-22T17:17:10.384Z,1.60
2018-06-22T17:19:39.173Z,1.60
2018-06-22T17:22:07.701Z,1.50
2018-06-22T17:24:36.403Z,1.20
2018-06-22T17:27:05.345Z,1.83
2018-06-22T17:29:34.020Z,2.10
2018-06-22T17:32:02.761Z,1.50
2018-06-22T17:34:31.611Z,1.40
2018-06-22T17:37:00.563Z,1.60
2018-06-22T17:39:30.419Z,1.60
2018-06-22T17:42:00.427Z,1.77
2018-06-22T17:44:29.118Z,1.57
2018-06-22T17:46:58.218Z,1.40
2018-06-22T17:49:27.271Z,1.50
2018-06-22T17:51:56.079Z,1.63
2018-06-22T17:54:25.032Z,1.77
2018-06-22T17:56:53.723Z,1.50
2018-06-22T17:59:27.647Z,1.53
2018-06-22T18:02:01.604Z,1.70
2018-06-22T18:04:37.247Z,1.60
2018-06-22T18:07:11.290Z,1.63
2018-06-22T18:09:45.288Z,1.57
2018-06-22T18:12:20.028Z,1.87
2018-06-22T18:14:48.558Z,1.30
2018-06-22T18:17:17.982Z,1.40
2018-06-22T18:19:46.622Z,1.67
2018-06-22T18:22:15.288Z,1.37
2018-06-22T18:24:44.329Z,1.37
2018-06-22T18:27:12.917Z,1.60
2018-06-22T18:29:41.567Z,1.60
2018-06-22T18:32:10.184Z,1.40
2018-06-22T18:34:39.204Z,1.47
2018-06-22T18:37:07.988Z,1.43
2018-06-22T18:39:36.554Z,1.30
2018-06-22T18:42:05.324Z,1.50
2018-06-22T18:44:34.287Z,1.50
2018-06-22T18:47:03.136Z,1.43
2018-06-22T18:49:31.869Z,1.50
2018-06-22T18:52:05.802Z,1.53
2018-06-22T18:54:39.687Z,1.40
2018-06-22T18:57:13.654Z,1.80
2018-06-22T18:59:46.899Z,1.90
2018-06-22T19:02:21.055Z,1.67
2018-06-22T19:04:49.592Z,1.70
2018-06-22T19:07:18.222Z,1.53
2018-06-22T19:09:46.975Z,1.77
2018-06-22T19:12:16.141Z,1.83
2018-06-22T19:14:44.847Z,1.63
2018-06-22T19:17:13.139Z,1.93
2018-06-22T19:19:41.775Z,1.70
2018-06-22T19:22:11.241Z,1.83
2018-06-22T19:24:39.958Z,1.93
2018-06-22T19:27:09.267Z,2.53
2018-06-22T19:29:39.081Z,1.60
2018-06-22T19:32:07.665Z,2.00
2018-06-22T19:34:41.843Z,2.17
2018-06-22T19:37:10.775Z,2.07
2018-06-22T19:39:39.626Z,2.20
2018-06-22T19:42:09.754Z,2.63
2018-06-22T19:44:43.887Z,2.50
2018-06-22T19:47:17.671Z,2.43
2018-06-22T19:49:51.825Z,2.50
2018-06-22T19:52:26.196Z,2.40
2018-06-22T19:54:54.913Z,2.30
2018-06-22T19:57:23.457Z,2.50
2018-06-22T19:59:52.204Z,2.30
2018-06-22T20:02:20.784Z,2.10
2018-06-22T20:04:49.405Z,2.07
2018-06-22T20:07:18.599Z,2.20
2018-06-22T20:09:47.427Z,2.10
2018-06-22T20:12:16.999Z,2.13
2018-06-22T20:14:45.847Z,2.40
2018-06-22T20:17:14.594Z,2.50
2018-06-22T20:19:42.934Z,2.43
2018-06-22T20:22:12.815Z,2.33
2018-06-22T20:24:48.172Z,2.67
2018-06-22T20:27:17.153Z,2.03
2018-06-22T20:29:46.021Z,2.10
2018-06-22T20:32:15.714Z,2.50
2018-06-22T20:36:57.671Z,2.70
2018-06-22T20:39:31.734Z,2.90
2018-06-22T20:42:05.613Z,2.50
2018-06-22T20:44:39.775Z,3.20
2018-06-22T20:47:13.575Z,2.47
2018-06-22T20:49:47.359Z,3.03
2018-06-22T20:52:15.963Z,2.20
2018-06-22T20:54:45.620Z,2.93
2018-06-22T20:57:14.323Z,3.20
2018-06-22T20:59:42.881Z,2.63
2018-06-22T21:02:11.386Z,3.00
2018-06-22T21:04:40.266Z,2.77
2018-06-22T21:07:08.833Z,2.63
2018-06-22T21:09:37.543Z,2.63
2018-06-22T21:12:06.478Z,3.13
2018-06-22T21:14:35.076Z,2.47
2018-06-22T21:17:03.735Z,2.70
2018-06-22T21:19:32.368Z,2.23
2018-06-22T21:22:06.180Z,2.60
2018-06-22T21:24:34.731Z,2.60
2018-06-22T21:27:08.686Z,2.87
2018-06-22T21:29:43.017Z,2.87
2018-06-22T21:32:17.103Z,2.57
2018-06-22T21:34:51.088Z,3.00
2018-06-22T21:37:25.010Z,3.47
2018-06-22T21:39:53.641Z,2.80
2018-06-22T21:42:22.655Z,2.90
2018-06-22T21:44:51.823Z,2.60
2018-06-22T21:47:20.941Z,2.63
2018-06-22T21:49:49.580Z,2.53
2018-06-22T21:52:18.173Z,2.80
2018-06-22T21:54:47.240Z,2.43
2018-06-22T21:57:15.901Z,3.27
2018-06-22T21:59:44.486Z,3.20
2018-06-22T22:02:13.336Z,3.40
2018-06-22T22:04:42.590Z,3.03
2018-06-22T22:07:11.185Z,3.43
2018-06-22T22:09:42.263Z,3.70
2018-06-22T22:12:11.171Z,3.13
2018-06-22T22:14:40.548Z,2.53
2018-06-22T22:17:09.337Z,2.83
2018-06-22T22:19:38.788Z,2.67
2018-06-22T22:22:08.372Z,2.93
2018-06-22T22:24:36.986Z,2.57
2018-06-22T22:27:05.630Z,2.53
2018-06-22T22:29:34.316Z,2.67
2018-06-22T22:32:02.889Z,2.87
2018-06-22T22:34:31.495Z,2.70
2018-06-22T22:37:00.082Z,2.63
2018-06-22T22:39:28.692Z,2.70
2018-06-22T22:41:57.838Z,2.50
2018-06-22T22:44:26.424Z,2.80
2018-06-22T22:46:54.980Z,2.80
2018-06-22T22:49:23.593Z,2.40
2018-06-22T22:51:53.924Z,3.10
2018-06-22T22:54:23.267Z,2.80
2018-06-22T22:56:51.910Z,3.10
2018-06-22T22:59:20.553Z,2.97
2018-06-22T23:01:49.242Z,2.33
2018-06-22T23:04:17.936Z,2.27
2018-06-22T23:06:46.423Z,3.00
2018-06-22T23:09:15.036Z,3.10
2018-06-22T23:11:43.529Z,2.70
2018-06-22T23:14:13.033Z,2.83
2018-06-22T23:16:41.563Z,2.90
2018-06-22T23:19:10.111Z,3.60
2018-06-22T23:21:38.603Z,3.43
2018-06-22T23:24:07.318Z,2.37
2018-06-22T23:26:36.108Z,3.07
2018-06-22T23:29:04.795Z,2.63
2018-06-22T23:31:33.375Z,3.83
2018-06-22T23:34:02.133Z,3.13
2018-06-22T23:36:30.705Z,3.50
2018-06-22T23:38:59.295Z,3.17
2018-06-22T23:41:28.232Z,2.90
2018-06-22T23:43:57.456Z,3.13
2018-06-22T23:46:26.060Z,3.30
2018-06-22T23:48:54.594Z,3.87
2018-06-22T23:51:23.076Z,3.70
2018-06-22T23:53:51.631Z,4.47
2018-06-22T23:56:20.253Z,5.00
2018-06-22T23:58:48.787Z,4.63
